This is the latest recevied weather packets stored in our database for station/object HS6TUX-4. If no packets are shown the sender has not sent any weather packets the latest 10 day(s).
| Time | Temp. | Humidity | Pressure | Rain* | Wind** | Luminosity | Snow |
|---|---|---|---|---|---|---|---|
| 1777770808 | 42.22° C | 99% | 742 hPa | - | - | 123 W/m² | - |
| 1777769880 | 38.89° C | 99% | 737 hPa | - | - | 98 W/m² | - |
| 1777768951 | 37.22° C | 99% | 736 hPa | - | - | 78 W/m² | - |
| 1777768023 | 35° C | 99% | 733 hPa | - | - | 62 W/m² | - |
| 1777767094 | 32.78° C | 99% | 730 hPa | - | - | 41 W/m² | - |
| 1777766165 | 29.44° C | 99% | 727 hPa | - | - | 26 W/m² | - |
| 1777765236 | 26.67° C | 99% | 724 hPa | - | - | 9 W/m² | - |
| 1777764308 | 26.67° C | 99% | 724 hPa | - | - | 3 W/m² | - |
| 1777763380 | 26.67° C | 99% | 723 hPa | - | - | 2 W/m² | - |
| 1777762451 | 26.11° C | 99% | 723 hPa | - | - | 0 W/m² | - |
| 1777761522 | 26.11° C | 99% | 723 hPa | - | - | 0 W/m² | - |
| 1777760594 | 26.67° C | 99% | 723 hPa | - | - | 0 W/m² | - |
| 1777759666 | 26.67° C | 99% | 724 hPa | - | - | 0 W/m² | - |
| 1777758737 | 27.22° C | 99% | 724 hPa | - | - | 0 W/m² | - |
| 1777757809 | 27.22° C | 99% | 724 hPa | - | - | 0 W/m² | - |
| 1777756880 | 27.78° C | 99% | 725 hPa | - | - | 0 W/m² | - |
| 1777755952 | 28.33° C | 99% | 725 hPa | - | - | 0 W/m² | - |
| 1777755024 | 27.78° C | 99% | 725 hPa | - | - | 0 W/m² | - |
| 1777754095 | 27.78° C | 99% | 725 hPa | - | - | 0 W/m² | - |
| 1777753167 | 28.33° C | 99% | 725 hPa | - | - | 0 W/m² | - |
| 1777752239 | 28.33° C | 99% | 725 hPa | - | - | 0 W/m² | - |
| 1777751310 | 28.33° C | 99% | 725 hPa | - | - | 0 W/m² | - |
| 1777750382 | 28.33° C | 99% | 725 hPa | - | - | 0 W/m² | - |
| 1777749454 | 28.89° C | 99% | 726 hPa | - | - | 0 W/m² | - |
| 1777748525 | 28.89° C | 99% | 726 hPa | - | - | 0 W/m² | - |
* Rain since midnight (hover to see other rain measurements)
** Current wind speed in m/s (hover to see current wind gust speed)